Time;durP1;ratioP1;P1;durP2;ratioP2;P2;SDS_P1;SDS_P2;PMS_P1;PMS_P2;Temp;Humidity;BMP_temperature;BMP_pressure;BME280_temperature;BME280_humidity;BME280_pressure;Samples;Min_cycle;Max_cycle;Signal;HPM_P1;HPM_P2
2023/10/01 00:00:43;;;;;;;22.38;13.70;;;;;;;22.63;52.10;102460.84;5006192;28;20117;-36
2023/10/01 00:03:11;;;;;;;22.27;13.10;;;;;;;22.62;51.90;102464.56;5005085;28;20575;-36
2023/10/01 00:05:40;;;;;;;21.73;13.25;;;;;;;22.59;51.77;102463.00;5002759;28;20046;-36
2023/10/01 00:08:12;;;;;;;22.90;13.35;;;;;;;22.58;51.93;102466.69;5002435;28;20133;-37
2023/10/01 00:10:41;;;;;;;20.30;12.50;;;;;;;22.56;51.97;102462.44;5002293;28;20076;-36
2023/10/01 00:13:08;;;;;;;19.58;12.10;;;;;;;22.54;52.10;102456.31;5002745;28;20053;-37
2023/10/01 00:15:37;;;;;;;19.50;11.90;;;;;;;22.53;51.77;102460.03;5004434;28;20050;-36
2023/10/01 00:18:06;;;;;;;16.77;11.10;;;;;;;22.52;51.93;102450.22;5008257;28;20076;-36
2023/10/01 00:20:33;;;;;;;19.30;12.02;;;;;;;22.50;51.99;102458.44;5004834;28;20046;-37
2023/10/01 00:23:03;;;;;;;21.23;12.73;;;;;;;22.48;51.83;102452.34;5004427;28;20133;-37
2023/10/01 00:25:38;;;;;;;18.15;11.63;;;;;;;22.47;51.85;102447.94;4999481;28;20042;-37
2023/10/01 00:28:06;;;;;;;20.02;12.05;;;;;;;22.46;52.19;102448.94;5003511;28;20046;-37
2023/10/01 00:30:33;;;;;;;18.23;11.40;;;;;;;22.44;52.01;102442.84;5003406;28;20050;-37
2023/10/01 00:33:10;;;;;;;19.77;10.65;;;;;;;22.45;51.64;102446.38;5003979;28;20490;-37
2023/10/01 00:35:40;;;;;;;17.40;10.82;;;;;;;22.42;52.03;102434.84;5004274;28;20053;-37
2023/10/01 00:38:08;;;;;;;19.90;11.20;;;;;;;22.41;51.98;102433.16;5006847;28;20054;-37
2023/10/01 00:40:35;;;;;;;16.10;10.55;;;;;;;22.41;52.09;102443.97;5003862;28;20049;-37
2023/10/01 00:43:03;;;;;;;17.65;10.10;;;;;;;22.40;52.15;102436.00;5002011;28;20523;-37
2023/10/01 00:45:30;;;;;;;16.48;9.68;;;;;;;22.38;52.30;102432.59;5004602;28;20435;-37
2023/10/01 00:48:04;;;;;;;17.15;10.02;;;;;;;22.38;51.98;102432.59;5006461;28;20218;-37
2023/10/01 00:50:32;;;;;;;19.23;10.68;;;;;;;22.37;52.09;102434.44;5008830;28;20053;-37
2023/10/01 00:53:00;;;;;;;16.98;10.07;;;;;;;22.36;52.01;102432.75;5006176;28;20081;-37
2023/10/01 00:55:28;;;;;;;14.32;8.05;;;;;;;22.35;51.75;102427.47;5005817;28;20057;-37
2023/10/01 00:57:56;;;;;;;16.08;9.95;;;;;;;22.34;52.02;102432.03;5004280;28;20049;-37
2023/10/01 01:00:25;;;;;;;17.58;9.73;;;;;;;22.35;51.92;102430.16;5002246;28;20526;-37
2023/10/01 01:03:06;;;;;;;15.02;9.48;;;;;;;22.32;51.97;102423.22;4997208;28;20065;-37
2023/10/01 01:05:57;;;;;;;15.75;9.32;;;;;;;22.31;52.35;102429.63;5003716;28;20442;-37
2023/10/01 01:08:46;;;;;;;17.35;8.95;;;;;;;22.30;52.27;102424.34;4996526;28;20126;-37
2023/10/01 01:11:16;;;;;;;15.35;8.30;;;;;;;22.31;52.22;102420.66;5005966;28;20045;-37
2023/10/01 01:13:43;;;;;;;13.63;7.93;;;;;;;22.29;52.04;102423.50;5004373;28;20054;-37
2023/10/01 01:16:15;;;;;;;12.23;7.55;;;;;;;22.28;52.33;102419.09;5004374;28;20129;-37
2023/10/01 01:18:42;;;;;;;14.15;8.90;;;;;;;22.27;52.07;102419.22;5003844;28;20042;-35
2023/10/01 01:21:13;;;;;;;12.85;8.63;;;;;;;22.26;52.33;102407.56;5003354;28;20050;-35
2023/10/01 01:23:50;;;;;;;13.52;8.45;;;;;;;22.26;51.99;102417.53;5006462;28;20053;-36
2023/10/01 01:26:22;;;;;;;12.88;7.78;;;;;;;22.26;51.92;102417.53;5006349;28;20060;-36
2023/10/01 01:28:49;;;;;;;14.68;8.50;;;;;;;22.24;52.11;102406.03;5000926;28;20085;-36
2023/10/01 01:31:18;;;;;;;13.70;8.10;;;;;;;22.23;52.21;102402.47;5001199;28;20137;-36
2023/10/01 01:33:52;;;;;;;13.68;7.93;;;;;;;22.23;51.94;102407.00;5000859;28;20073;-36
2023/10/01 01:36:19;;;;;;;12.88;7.55;;;;;;;22.22;52.27;102408.84;4999981;28;20125;-36
2023/10/01 01:39:27;;;;;;;10.90;6.70;;;;;;;22.20;51.83;102405.47;5001254;28;20439;-36
2023/10/01 01:41:54;;;;;;;12.98;6.90;;;;;;;22.22;52.19;102408.00;5003224;28;20057;-36
2023/10/01 01:44:21;;;;;;;11.13;6.40;;;;;;;22.18;52.12;102400.19;5003967;28;20054;-36
2023/10/01 01:46:47;;;;;;;10.27;6.25;;;;;;;22.17;52.05;102403.88;5006496;28;20053;-36
2023/10/01 01:49:19;;;;;;;13.00;7.28;;;;;;;22.17;52.27;102398.50;5002076;28;20064;-36
2023/10/01 01:51:59;;;;;;;13.55;6.53;;;;;;;22.17;52.11;102398.50;5001657;28;20109;-36
2023/10/01 01:54:31;;;;;;;11.30;7.03;;;;;;;22.17;52.04;102397.63;4999925;28;20054;-36
2023/10/01 01:56:58;;;;;;;11.60;6.47;;;;;;;22.16;52.13;102391.38;5000566;28;20050;-36
2023/10/01 01:59:28;;;;;;;11.80;6.10;;;;;;;22.16;51.99;102390.53;5006401;28;20061;-36
2023/10/01 02:01:59;;;;;;;12.82;6.88;;;;;;;22.14;52.14;102393.38;4999356;28;20081;-36
2023/10/01 02:04:26;;;;;;;11.10;5.93;;;;;;;22.14;52.03;102389.81;4999143;28;20449;-36
2023/10/01 02:06:54;;;;;;;10.13;6.18;;;;;;;22.14;52.06;102389.81;5001224;28;20455;-36
2023/10/01 02:09:24;;;;;;;12.45;6.60;;;;;;;22.13;52.23;102385.41;5002699;28;20105;-36
2023/10/01 02:11:52;;;;;;;11.27;6.32;;;;;;;22.12;51.93;102379.13;5001074;28;20163;-36
2023/10/01 02:14:32;;;;;;;10.32;5.78;;;;;;;22.12;52.21;102387.25;5002770;28;20038;-36
2023/10/01 02:17:13;;;;;;;10.63;6.25;;;;;;;22.11;52.10;102390.06;5005368;28;20049;-36
2023/10/01 02:19:46;;;;;;;9.05;5.60;;;;;;;22.10;52.07;102385.66;5006649;28;20046;-36
2023/10/01 02:22:16;;;;;;;;;;;;;;;22.08;51.96;102388.53;5002427;28;20141;-36
2023/10/01 02:24:54;;;;;;;10.73;5.75;;;;;;;22.12;52.00;102383.69;5001981;28;19926;-36
2023/10/01 02:27:41;;;;;;;12.25;5.85;;;;;;;22.10;51.87;102386.50;5006049;28;20054;-36
2023/10/01 02:30:16;;;;;;;10.68;5.60;;;;;;;22.08;51.79;102377.72;5003875;28;20108;-36
2023/10/01 02:33:15;;;;;;;9.15;5.28;;;;;;;22.07;51.89;102378.72;5009845;28;20060;-36
2023/10/01 02:35:41;;;;;;;10.95;5.53;;;;;;;22.07;51.80;102375.13;5004532;28;20411;-36
2023/10/01 02:38:36;;;;;;;8.95;5.88;;;;;;;22.06;52.07;102378.84;5000325;28;20463;-36
2023/10/01 02:40:58;;;;;;;9.65;4.88;;;;;;;22.06;51.89;102381.53;5003184;28;20696;-36
2023/10/01 02:43:26;;;;;;;9.85;4.88;;;;;;;22.05;51.92;102379.84;5007569;28;21241;-36
2023/10/01 02:45:53;;;;;;;10.13;4.80;;;;;;;22.04;51.99;102380.84;5006196;28;20054;-36
2023/10/01 02:48:20;;;;;;;8.15;4.78;;;;;;;22.03;52.22;102389.91;5005769;28;20081;-36
2023/10/01 02:50:52;;;;;;;7.53;4.45;;;;;;;22.03;52.13;102384.53;5010867;28;20137;-36
2023/10/01 02:53:21;;;;;;;10.50;4.80;;;;;;;22.02;52.01;102378.28;5005824;28;20050;-36
2023/10/01 02:55:51;;;;;;;10.35;4.70;;;;;;;22.02;52.41;102377.44;5005385;28;20073;-36
2023/10/01 02:58:28;;;;;;;9.10;4.40;;;;;;;22.01;52.28;102381.97;5000834;28;20046;-36
2023/10/01 03:00:55;;;;;;;7.53;4.50;;;;;;;22.01;51.97;102375.72;5006295;28;20046;-36
2023/10/01 03:03:40;;;;;;;9.80;5.10;;;;;;;22.00;51.87;102372.19;4999829;28;20074;-36
2023/10/01 03:06:09;;;;;;;9.25;4.57;;;;;;;22.01;52.09;102370.31;5001041;28;20403;-35
2023/10/01 03:08:41;;;;;;;10.35;5.07;;;;;;;21.99;51.71;102370.47;5002136;28;20069;-35
2023/10/01 03:11:11;;;;;;;8.50;4.07;;;;;;;21.98;51.97;102371.47;5003050;28;20050;-36
2023/10/01 03:13:40;;;;;;;8.18;4.20;;;;;;;21.97;52.28;102364.34;5003004;28;20456;-36
2023/10/01 03:18:55;;;;;;;9.50;4.70;;;;;;;21.97;52.24;102360.81;5006624;28;20504;-36
2023/10/01 03:22:15;;;;;;;10.23;4.70;;;;;;;21.96;52.20;102354.56;5003420;28;20077;-36
2023/10/01 03:24:25;;;;;;;8.20;4.40;;;;;;;21.96;52.07;102351.00;5005635;28;20452;-36
2023/10/01 03:26:57;;;;;;;7.20;4.32;;;;;;;21.94;51.95;102353.84;5002849;28;20386;-35
2023/10/01 03:29:34;;;;;;;9.57;4.40;;;;;;;21.93;52.11;102352.16;5007812;28;20770;-36
2023/10/01 03:32:26;;;;;;;9.60;4.28;;;;;;;21.93;51.73;102354.84;5004763;28;20343;-36
2023/10/01 03:34:52;;;;;;;8.13;4.45;;;;;;;21.93;51.97;102349.44;5000459;28;20129;-36
2023/10/01 03:37:20;;;;;;;7.97;4.07;;;;;;;21.92;51.95;102358.53;5002564;28;20212;-36
2023/10/01 03:39:46;;;;;;;8.18;4.65;;;;;;;21.91;51.78;102355.00;5002319;28;20135;-36
2023/10/01 03:42:13;;;;;;;6.72;3.90;;;;;;;21.90;52.24;102353.28;5002136;28;20510;-36
2023/10/01 03:44:59;;;;;;;9.90;4.35;;;;;;;21.89;52.16;102353.41;5003795;28;20077;-36
2023/10/01 03:47:27;;;;;;;8.90;4.80;;;;;;;21.89;52.03;102356.97;5002439;28;20434;-36
2023/10/01 03:49:55;;;;;;;9.75;4.43;;;;;;;21.88;52.21;102344.47;5004575;28;20057;-36
2023/10/01 03:52:22;;;;;;;8.88;4.00;;;;;;;21.86;52.16;102340.19;5000810;28;20132;-36
2023/10/01 03:57:25;;;;;;;9.52;3.90;;;;;;;21.86;52.30;102345.59;5008121;28;20133;-36
2023/10/01 03:59:52;;;;;;;7.47;4.10;;;;;;;21.85;52.29;102339.34;5006628;28;20446;-36
2023/10/01 04:05:22;;;;;;;8.52;4.28;;;;;;;21.85;52.05;102344.75;5004100;28;20049;-36
2023/10/01 04:07:49;;;;;;;8.60;4.18;;;;;;;21.84;51.77;102340.34;5000320;28;20046;-36
2023/10/01 04:13:05;;;;;;;9.25;3.92;;;;;;;21.83;52.16;102338.66;5005411;28;20052;-36
2023/10/01 04:15:31;;;;;;;7.50;4.35;;;;;;;21.83;52.35;102335.09;5005365;28;20053;-36
2023/10/01 04:23:31;;;;;;;9.18;4.03;;;;;;;21.82;52.24;102334.22;5005231;28;20047;-36
2023/10/01 04:26:06;;;;;;;6.82;3.90;;;;;;;21.82;52.11;102336.09;5006011;28;20050;-36
2023/10/01 04:28:35;;;;;;;9.80;3.58;;;;;;;21.81;51.96;102337.09;5008780;28;20160;-36
2023/10/01 04:31:09;;;;;;;7.55;4.00;;;;;;;21.81;51.82;102337.09;5005865;28;20050;-36
2023/10/01 04:33:42;;;;;;;8.25;3.97;;;;;;;21.80;51.89;102340.78;5002300;28;20250;-36
2023/10/01 04:36:16;;;;;;;7.82;3.92;;;;;;;21.79;51.78;102334.53;5001296;28;20046;-36
2023/10/01 04:38:51;;;;;;;;;;;;;;;21.78;51.91;102337.38;5000884;28;20077;-36
2023/10/01 04:41:19;;;;;;;9.15;3.63;;;;;;;21.81;51.88;102342.47;5004246;28;20303;-36
2023/10/01 04:43:55;;;;;;;7.82;3.95;;;;;;;21.80;51.96;102343.50;5002584;28;20442;-36
2023/10/01 04:46:29;;;;;;;8.75;4.07;;;;;;;21.78;52.11;102340.91;5004778;28;20104;-36
2023/10/01 04:48:56;;;;;;;7.90;3.83;;;;;;;21.78;52.04;102342.75;5006148;28;20061;-36
2023/10/01 04:51:24;;;;;;;9.55;3.65;;;;;;;21.78;51.92;102342.75;5000476;28;20046;-36
2023/10/01 04:53:52;;;;;;;7.63;3.42;;;;;;;21.76;52.02;102345.63;5000430;28;20077;-37
2023/10/01 04:56:22;;;;;;;9.70;4.18;;;;;;;21.76;52.06;102334.81;5003161;28;20453;-36
2023/10/01 04:58:51;;;;;;;7.47;3.75;;;;;;;21.76;52.27;102337.50;5002979;28;20058;-36
2023/10/01 05:01:26;;;;;;;7.35;4.47;;;;;;;21.76;52.19;102342.91;5008986;28;20077;-36
2023/10/01 05:03:57;;;;;;;8.10;3.78;;;;;;;21.76;51.94;102345.63;5005956;28;20041;-36
2023/10/01 05:06:27;;;;;;;9.25;3.67;;;;;;;21.76;51.87;102342.06;5004887;28;20048;-36
2023/10/01 05:08:56;;;;;;;9.18;4.13;;;;;;;21.75;51.90;102337.63;5000910;28;20058;-36
2023/10/01 05:11:29;;;;;;;7.40;3.50;;;;;;;21.74;52.31;102336.78;5000776;28;20077;-36
2023/10/01 05:13:58;;;;;;;9.00;4.18;;;;;;;21.73;52.17;102336.94;5001969;28;20050;-36
2023/10/01 05:16:31;;;;;;;8.85;3.67;;;;;;;21.74;52.11;102328.69;4999909;28;20043;-36
2023/10/01 05:19:10;;;;;;;;;;;;;;;21.72;52.13;102338.78;5002758;28;20050;-36
2023/10/01 05:21:41;;;;;;;9.48;4.45;;;;;;;21.75;51.86;102337.63;5005091;28;19991;-35
2023/10/01 05:24:09;;;;;;;9.93;3.95;;;;;;;21.74;52.11;102336.78;5003936;28;20590;-36
2023/10/01 05:26:38;;;;;;;9.30;3.90;;;;;;;21.72;52.24;102344.19;5003125;28;20046;-36
2023/10/01 05:29:08;;;;;;;9.18;3.97;;;;;;;21.72;52.25;102354.13;4999585;28;20073;-36
2023/10/01 05:31:34;;;;;;;11.40;4.28;;;;;;;21.71;52.14;102342.50;5005264;28;20103;-36
2023/10/01 05:34:01;;;;;;;7.30;4.13;;;;;;;21.71;51.85;102353.28;5008592;28;20053;-36
2023/10/01 05:36:29;;;;;;;10.20;3.45;;;;;;;21.71;52.02;102357.81;5005441;28;20077;-36
2023/10/01 05:38:56;;;;;;;7.95;3.47;;;;;;;21.71;52.11;102352.41;5005546;28;20081;-36
2023/10/01 05:41:32;;;;;;;8.73;4.25;;;;;;;21.69;51.81;102356.09;5000921;28;20064;-36
2023/10/01 05:44:01;;;;;;;7.25;3.60;;;;;;;21.71;51.94;102360.50;4998577;28;20064;-36
2023/10/01 05:46:30;;;;;;;7.93;3.67;;;;;;;21.69;52.17;102361.50;5000827;28;20188;-36
2023/10/01 05:49:00;;;;;;;7.20;3.60;;;;;;;21.69;52.27;102350.72;4996682;28;20096;-36
2023/10/01 05:51:42;;;;;;;8.43;3.80;;;;;;;21.68;52.16;102343.63;4998985;28;20054;-36
2023/10/01 05:54:09;;;;;;;6.28;3.20;;;;;;;21.68;52.29;102359.81;5000361;28;20342;-36
2023/10/01 05:56:43;;;;;;;7.68;3.55;;;;;;;21.68;52.20;102349.03;5006777;28;20120;-36
2023/10/01 05:59:11;;;;;;;7.93;3.88;;;;;;;21.68;52.26;102354.41;5007096;28;20052;-36
2023/10/01 06:01:39;;;;;;;5.82;3.25;;;;;;;21.68;52.12;102354.41;5004865;28;20046;-36
2023/10/01 06:04:09;;;;;;;8.25;3.25;;;;;;;21.68;51.91;102342.78;5007071;28;20057;-36
2023/10/01 06:06:38;;;;;;;7.13;3.20;;;;;;;21.67;51.86;102350.03;5008404;28;20130;-36
2023/10/01 06:09:09;;;;;;;7.35;3.85;;;;;;;21.68;52.10;102349.03;5006612;28;20100;-36
2023/10/01 06:11:38;;;;;;;7.50;3.88;;;;;;;21.68;52.31;102359.81;5012390;28;20062;-36
2023/10/01 06:14:06;;;;;;;7.28;3.38;;;;;;;21.68;51.89;102357.13;5005080;28;20050;-36
2023/10/01 06:16:39;;;;;;;8.23;3.83;;;;;;;21.69;51.96;102355.25;5006964;28;20139;-36
2023/10/01 06:19:11;;;;;;;8.32;3.70;;;;;;;21.68;52.41;102351.72;5005368;28;20108;-36
2023/10/01 06:21:41;;;;;;;8.35;3.80;;;;;;;21.67;52.21;102352.72;5006381;28;20092;-36
2023/10/01 06:24:10;;;;;;;7.07;3.38;;;;;;;21.67;52.08;102355.41;4999409;28;20109;-36
2023/10/01 06:26:42;;;;;;;8.63;4.05;;;;;;;21.68;52.48;102365.22;5004092;28;20050;-36
2023/10/01 06:29:13;;;;;;;9.07;3.58;;;;;;;21.69;52.05;102363.34;5008659;28;20045;-36
2023/10/01 06:31:48;;;;;;;9.23;3.90;;;;;;;21.69;52.18;102369.59;5007919;28;20077;-36
2023/10/01 06:34:21;;;;;;;8.63;3.80;;;;;;;21.69;52.18;102358.81;5003671;28;20082;-36
2023/10/01 06:36:55;;;;;;;8.15;3.42;;;;;;;21.70;52.16;102362.34;5003099;28;20097;-36
2023/10/01 06:39:24;;;;;;;11.32;4.05;;;;;;;21.70;52.14;102359.66;5001253;28;20103;-36
2023/10/01 06:41:52;;;;;;;8.30;4.28;;;;;;;21.70;52.34;102351.56;5007082;28;20492;-36
2023/10/01 06:44:19;;;;;;;10.23;4.30;;;;;;;21.71;52.16;102355.09;5007211;28;20046;-36
2023/10/01 06:46:48;;;;;;;7.57;3.58;;;;;;;21.72;52.17;102364.94;5004783;28;20397;-36
2023/10/01 06:49:18;;;;;;;7.88;4.00;;;;;;;21.70;51.82;102359.66;5001433;28;20046;-37
2023/10/01 06:51:45;;;;;;;10.30;4.75;;;;;;;21.69;52.12;102360.66;5005130;28;20061;-36
2023/10/01 06:54:13;;;;;;;8.80;3.83;;;;;;;21.69;51.88;102350.72;5001017;28;20049;-36
2023/10/01 06:56:47;;;;;;;9.98;4.35;;;;;;;21.69;52.33;102349.88;5005437;28;20269;-36
2023/10/01 06:59:16;;;;;;;9.85;4.20;;;;;;;21.68;51.86;102354.41;5002623;28;20500;-36
2023/10/01 07:01:47;;;;;;;9.98;4.30;;;;;;;21.68;52.10;102350.88;5005105;28;20073;-36
2023/10/01 07:04:17;;;;;;;10.18;4.32;;;;;;;21.67;52.13;102350.03;5003543;28;20056;-36
2023/10/01 07:06:45;;;;;;;10.55;4.53;;;;;;;21.67;52.06;102355.41;5004478;28;20108;-36
2023/10/01 07:12:10;;;;;;;9.32;4.40;;;;;;;21.67;52.18;102352.72;5006022;28;20390;-36
2023/10/01 07:14:45;;;;;;;7.97;3.97;;;;;;;21.66;51.87;102359.09;5003010;28;20093;-36
2023/10/01 07:17:14;;;;;;;9.35;4.10;;;;;;;21.66;52.17;102364.47;5005051;28;20041;-36
2023/10/01 07:19:45;;;;;;;10.70;3.92;;;;;;;21.65;52.28;102365.47;5005036;28;20319;-36
2023/10/01 07:22:14;;;;;;;11.40;4.55;;;;;;;21.66;51.86;102366.31;5000171;28;20548;-36
2023/10/01 07:24:41;;;;;;;11.18;4.80;;;;;;;21.66;52.26;102371.72;5003556;28;20047;-36
2023/10/01 07:27:11;;;;;;;9.13;4.55;;;;;;;21.65;51.97;102375.44;5002393;28;20088;-36
2023/10/01 07:29:42;;;;;;;8.80;4.25;;;;;;;21.65;51.96;102380.81;5003187;28;20046;-36
2023/10/01 07:32:12;;;;;;;8.60;4.55;;;;;;;21.64;52.17;102374.56;5005687;28;20046;-36
2023/10/01 07:34:42;;;;;;;11.52;4.68;;;;;;;21.65;52.07;102380.81;5010535;28;20449;-36
2023/10/01 07:37:23;;;;;;;14.43;5.97;;;;;;;21.65;52.00;102383.53;5009094;28;20042;-36
2023/10/01 07:40:17;;;;;;;10.23;4.57;;;;;;;21.65;51.97;102380.81;5002922;28;20457;-36
2023/10/01 07:42:48;;;;;;;10.80;5.15;;;;;;;21.65;52.06;102378.13;5000551;28;20382;-36
2023/10/01 07:45:16;;;;;;;9.50;4.72;;;;;;;21.65;52.02;102381.66;5004705;28;20068;-36
2023/10/01 07:47:44;;;;;;;11.07;5.03;;;;;;;21.66;51.79;102383.38;5004484;28;20046;-36
2023/10/01 07:50:16;;;;;;;10.13;4.68;;;;;;;21.65;52.06;102378.97;5005821;28;20498;-36
2023/10/01 07:52:44;;;;;;;8.60;3.78;;;;;;;21.66;51.82;102379.81;5003594;28;20057;-36
2023/10/01 07:55:29;;;;;;;10.02;5.07;;;;;;;21.66;51.95;102372.56;5004592;28;20045;-36
2023/10/01 08:00:47;;;;;;;9.40;4.63;;;;;;;21.68;51.54;102372.47;4986422;28;20054;-36
2023/10/01 08:05:48;;;;;;;11.43;5.20;;;;;;;21.67;52.14;102377.00;5005214;28;20068;-36
2023/10/01 08:08:35;;;;;;;12.60;5.50;;;;;;;21.69;51.97;102374.16;5006648;28;20049;-36
2023/10/01 08:11:03;;;;;;;12.05;5.55;;;;;;;21.69;51.97;102377.69;5006473;28;20137;-36
2023/10/01 08:13:30;;;;;;;12.57;5.43;;;;;;;21.71;51.48;102382.09;5002400;28;20046;-36
2023/10/01 08:15:57;;;;;;;15.13;5.72;;;;;;;21.71;51.81;102374.00;5006964;28;20042;-36
2023/10/01 08:18:35;;;;;;;9.52;4.88;;;;;;;21.72;51.82;102383.81;5003669;28;20217;-36
2023/10/01 08:21:04;;;;;;;11.70;4.90;;;;;;;21.73;52.08;102383.66;5006211;28;20050;-36
2023/10/01 08:23:36;;;;;;;13.30;4.43;;;;;;;21.73;52.09;102375.56;5004129;28;20045;-36
2023/10/01 08:26:43;;;;;;;10.70;5.30;;;;;;;21.75;51.81;102375.44;5002793;28;20050;-36
2023/10/01 08:28:57;;;;;;;10.82;5.13;;;;;;;21.77;52.08;102376.16;5001982;28;20045;-36
2023/10/01 08:34:29;;;;;;;10.93;5.55;;;;;;;21.80;51.67;102381.28;4958678;28;20062;-36
2023/10/01 08:36:58;;;;;;;11.60;5.85;;;;;;;21.80;52.08;102390.22;4994281;28;20169;-36
2023/10/01 08:42:12;;;;;;;11.35;5.05;;;;;;;21.84;51.94;102388.09;5008702;28;20057;-36
2023/10/01 08:44:45;;;;;;;10.57;4.72;;;;;;;21.86;51.76;102389.63;5002187;28;20390;-36
2023/10/01 08:47:51;;;;;;;11.77;5.50;;;;;;;21.90;51.94;102388.38;5000449;28;20082;-36
2023/10/01 08:50:19;;;;;;;11.88;5.35;;;;;;;21.93;51.96;102379.13;5001621;28;20441;-36
2023/10/01 08:52:58;;;;;;;10.77;5.55;;;;;;;21.93;51.89;102380.00;5001847;28;20050;-36
2023/10/01 08:55:40;;;;;;;14.10;6.32;;;;;;;21.94;52.03;102386.22;5000120;28;20053;-36
2023/10/01 09:00:49;;;;;;;11.32;4.82;;;;;;;21.98;51.75;102384.94;5004099;28;20125;-37
2023/10/01 09:03:30;;;;;;;12.55;5.80;;;;;;;22.00;51.87;102385.69;4998232;28;20050;-37
2023/10/01 09:06:24;;;;;;;10.23;5.47;;;;;;;22.02;51.59;102386.38;4997952;28;20049;-37
2023/10/01 09:08:55;;;;;;;;;;;;;;;22.04;51.73;102383.56;5006239;28;20050;-37
2023/10/01 09:11:43;;;;;;;10.57;5.07;;;;;;;22.06;51.57;102393.19;5005224;28;19921;-37
2023/10/01 09:14:19;;;;;;;12.23;5.57;;;;;;;22.09;51.57;102392.06;5004516;28;20108;-37
2023/10/01 09:16:57;;;;;;;12.20;5.90;;;;;;;22.08;51.79;102382.28;5005972;28;20096;-37
2023/10/01 09:19:34;;;;;;;11.23;5.13;;;;;;;22.11;51.58;102382.84;5003444;28;20104;-37
2023/10/01 09:22:08;;;;;;;12.20;5.50;;;;;;;22.12;51.82;102389.09;5000794;28;20058;-37
2023/10/01 09:24:38;;;;;;;12.65;5.72;;;;;;;22.13;51.73;102385.41;5003196;28;20385;-37
2023/10/01 09:27:09;;;;;;;14.57;5.55;;;;;;;22.13;51.85;102378.16;4999965;28;20100;-37
2023/10/01 09:29:48;;;;;;;12.35;5.85;;;;;;;22.15;51.62;102378.00;5000794;28;20460;-37
2023/10/01 09:32:15;;;;;;;12.30;5.88;;;;;;;22.16;51.76;102382.44;5001723;28;20104;-36
2023/10/01 09:34:53;;;;;;;11.63;5.55;;;;;;;22.17;51.77;102384.97;5004042;28;20054;-37
2023/10/01 09:37:52;;;;;;;12.13;5.43;;;;;;;22.18;51.91;102386.69;5001404;28;20046;-37
2023/10/01 09:43:03;;;;;;;10.93;5.15;;;;;;;22.24;51.58;102392.53;5001300;28;20422;-37
2023/10/01 09:45:37;;;;;;;13.35;5.25;;;;;;;22.26;51.50;102390.53;4997538;28;20060;-37
2023/10/01 09:48:09;;;;;;;9.45;5.22;;;;;;;22.26;51.80;102385.97;5002071;28;20348;-37
2023/10/01 09:50:44;;;;;;;11.63;5.13;;;;;;;22.28;51.48;102380.44;5005475;28;20431;-37
2023/10/01 09:53:20;;;;;;;12.25;5.18;;;;;;;22.29;51.64;102388.38;5001770;28;20050;-37
2023/10/01 09:55:55;;;;;;;8.88;4.35;;;;;;;22.31;51.57;102383.72;4999265;28;20113;-37
2023/10/01 09:58:28;;;;;;;13.70;5.38;;;;;;;22.34;51.82;102386.09;4998538;28;20046;-37
2023/10/01 10:01:00;;;;;;;12.00;5.35;;;;;;;22.38;51.74;102387.50;5019182;28;20054;-37
2023/10/01 10:03:37;;;;;;;8.52;4.68;;;;;;;22.41;51.75;102375.56;5000128;28;20402;-37
2023/10/01 10:06:06;;;;;;;10.20;5.15;;;;;;;22.47;51.42;102366.03;4998744;28;20050;-37
2023/10/01 10:08:39;;;;;;;13.73;5.55;;;;;;;22.51;51.60;102362.03;5004138;28;20333;-37
2023/10/01 10:11:24;;;;;;;10.33;4.97;;;;;;;22.57;51.39;102370.41;5005019;28;20338;-37
2023/10/01 10:13:57;;;;;;;13.27;5.75;;;;;;;22.62;51.27;102357.31;5000774;28;20511;-37
2023/10/01 10:16:33;;;;;;;12.38;5.53;;;;;;;22.67;51.32;102357.72;5001265;28;20042;-37
2023/10/01 10:19:20;;;;;;;11.30;5.43;;;;;;;22.72;51.16;102365.41;5007970;28;20056;-37
2023/10/01 10:24:31;;;;;;;13.88;5.78;;;;;;;22.82;51.03;102357.22;5002312;28;20050;-37
2023/10/01 10:27:07;;;;;;;9.90;4.70;;;;;;;22.86;50.98;102355.94;5000717;28;20047;-37
2023/10/01 10:30:00;;;;;;;11.73;5.60;;;;;;;22.89;50.89;102344.81;5001949;28;20129;-37
2023/10/01 10:32:30;;;;;;;9.93;4.88;;;;;;;22.95;51.21;102346.94;4997646;28;20069;-37
2023/10/01 10:35:03;;;;;;;11.65;5.60;;;;;;;22.99;51.23;102345.66;5000718;28;20042;-37
2023/10/01 10:37:36;;;;;;;14.65;6.07;;;;;;;23.02;51.00;102342.66;5002857;28;20045;-37
2023/10/01 10:43:04;;;;;;;11.40;5.50;;;;;;;23.08;50.79;102352.03;5002503;28;20153;-37
2023/10/01 10:45:47;;;;;;;10.73;5.70;;;;;;;23.11;51.02;102346.31;5002390;28;20354;-37
2023/10/01 10:48:21;;;;;;;11.23;5.53;;;;;;;23.14;51.00;102343.31;5006191;28;20045;-37
2023/10/01 10:51:02;;;;;;;12.18;5.57;;;;;;;23.16;50.83;102352.13;5007401;28;20145;-37
2023/10/01 10:53:46;;;;;;;11.77;5.18;;;;;;;23.18;50.59;102355.53;5002040;28;20054;-37
2023/10/01 10:56:14;;;;;;;12.68;5.75;;;;;;;23.19;51.05;102350.97;5003024;28;20445;-37
2023/10/01 10:58:45;;;;;;;13.18;5.47;;;;;;;23.20;51.08;102341.88;5005355;28;20050;-37
2023/10/01 11:01:22;;;;;;;12.27;5.05;;;;;;;23.22;50.47;102342.56;5004468;28;20041;-37
2023/10/01 11:03:57;;;;;;;11.52;5.07;;;;;;;23.21;50.54;102338.16;5005270;28;20049;-37
2023/10/01 11:06:39;;;;;;;11.00;5.72;;;;;;;23.21;50.70;102332.75;5003133;28;20050;-37
2023/10/01 11:09:22;;;;;;;10.93;5.30;;;;;;;23.21;51.36;102338.16;4998473;28;20077;-37
2023/10/01 11:11:51;;;;;;;13.10;5.82;;;;;;;23.21;51.17;102339.00;5006273;28;20060;-37
2023/10/01 11:14:19;;;;;;;14.15;5.88;;;;;;;23.22;50.88;102334.44;5007223;28;20061;-37
2023/10/01 11:16:48;;;;;;;10.77;5.47;;;;;;;23.22;51.09;102334.44;5007741;28;20096;-37
2023/10/01 11:19:28;;;;;;;10.77;5.30;;;;;;;23.21;50.84;102330.88;5003810;28;20464;-37
2023/10/01 11:21:59;;;;;;;12.30;5.57;;;;;;;23.22;51.28;102329.88;5006288;28;20054;-37
2023/10/01 11:24:32;;;;;;;11.27;5.93;;;;;;;23.23;51.27;102325.31;5005090;28;20409;-37
2023/10/01 11:27:14;;;;;;;11.55;5.93;;;;;;;23.24;51.28;102321.63;5002367;28;20049;-37
2023/10/01 11:29:42;;;;;;;12.73;5.70;;;;;;;23.25;51.05;102321.47;5003793;28;20049;-37
2023/10/01 11:32:16;;;;;;;11.70;5.45;;;;;;;23.25;51.31;102318.75;5004588;28;20481;-37
2023/10/01 11:34:55;;;;;;;9.95;5.15;;;;;;;23.27;51.37;102324.84;5001296;28;20058;-37
2023/10/01 11:37:27;;;;;;;9.65;4.65;;;;;;;23.28;51.37;102321.16;5003653;28;20046;-37
2023/10/01 11:39:54;;;;;;;11.25;5.70;;;;;;;23.29;50.92;102330.13;5001972;28;20058;-37
2023/10/01 11:42:28;;;;;;;11.27;5.60;;;;;;;23.29;51.64;102330.97;5002389;28;20050;-37
2023/10/01 11:44:55;;;;;;;11.95;5.43;;;;;;;23.31;51.33;102328.09;5003498;28;20092;-36
2023/10/01 11:47:31;;;;;;;8.80;4.78;;;;;;;23.32;51.67;102327.97;5005415;28;20484;-37
2023/10/01 11:50:08;;;;;;;10.98;4.93;;;;;;;23.33;51.15;102326.13;5001924;28;20100;-37
2023/10/01 11:52:36;;;;;;;13.07;6.25;;;;;;;23.36;51.50;102317.69;4997477;28;20042;-37
2023/10/01 11:55:18;;;;;;;11.55;5.28;;;;;;;23.38;50.97;102321.94;5002733;28;20462;-37
2023/10/01 11:57:51;;;;;;;11.63;5.32;;;;;;;23.42;51.24;102324.34;5002377;28;20121;-37
2023/10/01 12:00:32;;;;;;;10.80;5.55;;;;;;;23.42;51.60;102308.94;5001765;28;20360;-37
2023/10/01 12:02:59;;;;;;;13.32;6.13;;;;;;;23.44;51.42;102311.47;5002084;28;20136;-37
2023/10/01 12:05:38;;;;;;;12.68;6.18;;;;;;;23.44;51.45;102309.66;5003988;28;20426;-37
2023/10/01 12:08:05;;;;;;;15.68;6.75;;;;;;;23.46;51.20;102309.50;4998791;28;20042;-37
2023/10/01 12:10:32;;;;;;;12.70;5.97;;;;;;;23.47;51.47;102301.22;5003414;28;20049;-37
2023/10/01 12:13:02;;;;;;;13.50;5.68;;;;;;;23.47;51.60;102309.31;5001236;28;20354;-37
2023/10/01 12:15:37;;;;;;;13.10;6.22;;;;;;;23.50;51.31;102309.03;5004490;28;20054;-37
2023/10/01 12:18:13;;;;;;;12.63;5.82;;;;;;;23.51;51.39;102297.19;5002383;28;20426;-37
2023/10/01 12:20:47;;;;;;;12.45;5.47;;;;;;;23.55;51.64;102303.16;5008121;28;20056;-37
2023/10/01 12:23:15;;;;;;;12.70;5.53;;;;;;;23.56;51.54;102304.88;5005291;28;20054;-37
2023/10/01 12:25:47;;;;;;;13.05;5.95;;;;;;;23.58;51.53;102297.44;5005324;28;20445;-37
2023/10/01 12:28:18;;;;;;;15.90;6.13;;;;;;;23.60;51.22;102301.69;5003140;28;20046;-37